sensor_id;sensor_type;location;lat;lon;timestamp;temperature;humidity
9167;DHT22;4618;48.818;9.088;2023-06-22T00:00:19;19.70;99.90
9167;DHT22;4618;48.818;9.088;2023-06-22T00:02:45;19.70;99.90
9167;DHT22;4618;48.818;9.088;2023-06-22T00:05:10;19.70;99.90
9167;DHT22;4618;48.818;9.088;2023-06-22T00:07:36;19.60;99.90
9167;DHT22;4618;48.818;9.088;2023-06-22T00:10:02;19.60;99.90
9167;DHT22;4618;48.818;9.088;2023-06-22T00:12:27;19.60;99.90
9167;DHT22;4618;48.818;9.088;2023-06-22T00:14:53;19.60;99.90
9167;DHT22;4618;48.818;9.088;2023-06-22T00:17:18;19.60;99.90
9167;DHT22;4618;48.818;9.088;2023-06-22T00:19:47;19.60;99.90
9167;DHT22;4618;48.818;9.088;2023-06-22T00:22:12;19.70;99.90
9167;DHT22;4618;48.818;9.088;2023-06-22T00:24:38;19.70;99.90
9167;DHT22;4618;48.818;9.088;2023-06-22T00:29:31;19.50;99.90
9167;DHT22;4618;48.818;9.088;2023-06-22T00:31:56;19.60;99.90
9167;DHT22;4618;48.818;9.088;2023-06-22T00:34:22;19.50;99.90
9167;DHT22;4618;48.818;9.088;2023-06-22T00:36:47;19.40;99.90
9167;DHT22;4618;48.818;9.088;2023-06-22T00:39:13;19.40;1.00
9167;DHT22;4618;48.818;9.088;2023-06-22T00:41:39;19.40;1.00
9167;DHT22;4618;48.818;9.088;2023-06-22T00:44:04;19.30;1.00
9167;DHT22;4618;48.818;9.088;2023-06-22T00:46:30;19.30;1.00
9167;DHT22;4618;48.818;9.088;2023-06-22T00:48:56;19.20;1.00
9167;DHT22;4618;48.818;9.088;2023-06-22T00:51:22;19.20;99.90
9167;DHT22;4618;48.818;9.088;2023-06-22T00:53:50;19.20;1.00
9167;DHT22;4618;48.818;9.088;2023-06-22T00:58:45;19.20;99.90
9167;DHT22;4618;48.818;9.088;2023-06-22T01:01:12;19.10;1.00
9167;DHT22;4618;48.818;9.088;2023-06-22T01:03:39;19.10;99.90
9167;DHT22;4618;48.818;9.088;2023-06-22T01:06:13;19.30;1.00
9167;DHT22;4618;48.818;9.088;2023-06-22T01:08:51;19.30;1.00
9167;DHT22;4618;48.818;9.088;2023-06-22T01:11:35;19.20;1.00
9167;DHT22;4618;48.818;9.088;2023-06-22T01:16:32;19.00;99.90
9167;DHT22;4618;48.818;9.088;2023-06-22T01:19:03;18.90;99.90
9167;DHT22;4618;48.818;9.088;2023-06-22T01:21:32;18.80;1.00
9167;DHT22;4618;48.818;9.088;2023-06-22T01:24:23;18.70;28.20
9167;DHT22;4618;48.818;9.088;2023-06-22T01:29:40;18.50;99.90
9167;DHT22;4618;48.818;9.088;2023-06-22T01:32:09;18.50;1.00
9167;DHT22;4618;48.818;9.088;2023-06-22T01:34:35;18.40;1.00
9167;DHT22;4618;48.818;9.088;2023-06-22T01:37:02;18.30;1.00
9167;DHT22;4618;48.818;9.088;2023-06-22T01:39:29;18.30;1.00
9167;DHT22;4618;48.818;9.088;2023-06-22T01:41:56;18.30;1.00
9167;DHT22;4618;48.818;9.088;2023-06-22T01:44:22;18.30;5.00
9167;DHT22;4618;48.818;9.088;2023-06-22T01:46:50;18.40;1.00
9167;DHT22;4618;48.818;9.088;2023-06-22T01:49:16;18.40;18.50
9167;DHT22;4618;48.818;9.088;2023-06-22T01:51:42;18.30;99.90
9167;DHT22;4618;48.818;9.088;2023-06-22T01:54:07;18.30;99.90
9167;DHT22;4618;48.818;9.088;2023-06-22T01:56:36;18.40;25.10
9167;DHT22;4618;48.818;9.088;2023-06-22T02:01:54;18.60;1.00
9167;DHT22;4618;48.818;9.088;2023-06-22T02:04:24;18.50;1.00
9167;DHT22;4618;48.818;9.088;2023-06-22T02:06:55;18.40;1.00
9167;DHT22;4618;48.818;9.088;2023-06-22T02:09:22;18.40;93.80
9167;DHT22;4618;48.818;9.088;2023-06-22T02:11:50;18.40;4.20
9167;DHT22;4618;48.818;9.088;2023-06-22T02:14:20;18.40;51.80
9167;DHT22;4618;48.818;9.088;2023-06-22T02:16:46;18.40;99.90
9167;DHT22;4618;48.818;9.088;2023-06-22T02:19:12;18.50;99.90
9167;DHT22;4618;48.818;9.088;2023-06-22T02:21:38;18.50;72.00
9167;DHT22;4618;48.818;9.088;2023-06-22T02:24:04;18.50;1.00
9167;DHT22;4618;48.818;9.088;2023-06-22T02:26:30;18.50;4.20
9167;DHT22;4618;48.818;9.088;2023-06-22T02:28:55;18.40;1.00
9167;DHT22;4618;48.818;9.088;2023-06-22T02:31:21;18.40;1.00
9167;DHT22;4618;48.818;9.088;2023-06-22T02:33:47;18.40;1.00
9167;DHT22;4618;48.818;9.088;2023-06-22T02:36:13;18.30;99.90
9167;DHT22;4618;48.818;9.088;2023-06-22T02:38:43;18.10;99.90
9167;DHT22;4618;48.818;9.088;2023-06-22T02:41:14;17.90;99.90
9167;DHT22;4618;48.818;9.088;2023-06-22T02:43:43;17.80;99.90
9167;DHT22;4618;48.818;9.088;2023-06-22T02:46:09;17.70;99.90
9167;DHT22;4618;48.818;9.088;2023-06-22T02:48:35;17.60;99.90
9167;DHT22;4618;48.818;9.088;2023-06-22T02:51:00;17.60;1.00
9167;DHT22;4618;48.818;9.088;2023-06-22T02:53:26;17.70;1.00
9167;DHT22;4618;48.818;9.088;2023-06-22T02:55:51;17.70;1.00
9167;DHT22;4618;48.818;9.088;2023-06-22T02:58:17;17.80;1.00
9167;DHT22;4618;48.818;9.088;2023-06-22T03:00:43;17.80;1.00
9167;DHT22;4618;48.818;9.088;2023-06-22T03:03:08;17.80;1.00
9167;DHT22;4618;48.818;9.088;2023-06-22T03:05:34;17.70;99.90
9167;DHT22;4618;48.818;9.088;2023-06-22T03:08:00;17.60;1.00
9167;DHT22;4618;48.818;9.088;2023-06-22T03:10:26;17.80;1.00
9167;DHT22;4618;48.818;9.088;2023-06-22T03:12:51;17.80;1.00
9167;DHT22;4618;48.818;9.088;2023-06-22T03:15:17;17.90;1.00
9167;DHT22;4618;48.818;9.088;2023-06-22T03:17:43;17.90;1.00
9167;DHT22;4618;48.818;9.088;2023-06-22T03:20:09;17.80;1.00
9167;DHT22;4618;48.818;9.088;2023-06-22T03:22:37;17.70;1.00
9167;DHT22;4618;48.818;9.088;2023-06-22T03:25:03;17.70;1.00
9167;DHT22;4618;48.818;9.088;2023-06-22T03:27:29;17.80;1.00
9167;DHT22;4618;48.818;9.088;2023-06-22T03:29:57;17.80;1.00
9167;DHT22;4618;48.818;9.088;2023-06-22T03:32:23;17.80;1.00
9167;DHT22;4618;48.818;9.088;2023-06-22T03:34:48;17.80;1.00
9167;DHT22;4618;48.818;9.088;2023-06-22T03:37:15;17.70;99.90
9167;DHT22;4618;48.818;9.088;2023-06-22T03:39:41;17.80;99.90
9167;DHT22;4618;48.818;9.088;2023-06-22T03:42:07;17.80;99.90
9167;DHT22;4618;48.818;9.088;2023-06-22T03:44:33;17.70;99.90
9167;DHT22;4618;48.818;9.088;2023-06-22T03:46:58;17.80;99.90
9167;DHT22;4618;48.818;9.088;2023-06-22T03:49:24;17.80;99.90
9167;DHT22;4618;48.818;9.088;2023-06-22T03:51:49;17.80;99.90
9167;DHT22;4618;48.818;9.088;2023-06-22T03:54:15;17.70;99.90
9167;DHT22;4618;48.818;9.088;2023-06-22T03:56:41;17.70;99.90
9167;DHT22;4618;48.818;9.088;2023-06-22T03:59:06;17.60;99.90
9167;DHT22;4618;48.818;9.088;2023-06-22T04:01:32;17.60;99.90
9167;DHT22;4618;48.818;9.088;2023-06-22T04:03:57;17.60;99.90
9167;DHT22;4618;48.818;9.088;2023-06-22T04:06:23;17.60;99.90
9167;DHT22;4618;48.818;9.088;2023-06-22T04:08:48;17.60;99.90
9167;DHT22;4618;48.818;9.088;2023-06-22T04:11:16;17.60;99.90
9167;DHT22;4618;48.818;9.088;2023-06-22T04:13:42;17.70;99.90
9167;DHT22;4618;48.818;9.088;2023-06-22T04:16:08;17.70;99.90
9167;DHT22;4618;48.818;9.088;2023-06-22T04:18:34;17.80;99.90
9167;DHT22;4618;48.818;9.088;2023-06-22T04:23:27;17.90;99.90
9167;DHT22;4618;48.818;9.088;2023-06-22T04:25:53;18.00;99.90
9167;DHT22;4618;48.818;9.088;2023-06-22T04:28:18;18.00;99.90
9167;DHT22;4618;48.818;9.088;2023-06-22T04:30:44;18.10;99.90
9167;DHT22;4618;48.818;9.088;2023-06-22T04:33:15;18.20;99.90
9167;DHT22;4618;48.818;9.088;2023-06-22T04:35:41;18.30;99.90
9167;DHT22;4618;48.818;9.088;2023-06-22T04:38:07;18.40;89.40
9167;DHT22;4618;48.818;9.088;2023-06-22T04:40:33;18.60;1.00
9167;DHT22;4618;48.818;9.088;2023-06-22T04:42:59;18.60;1.00
9167;DHT22;4618;48.818;9.088;2023-06-22T04:45:28;18.60;1.00
9167;DHT22;4618;48.818;9.088;2023-06-22T04:47:54;18.80;1.00
9167;DHT22;4618;48.818;9.088;2023-06-22T04:50:20;18.80;99.90
9167;DHT22;4618;48.818;9.088;2023-06-22T04:52:47;18.90;99.90
9167;DHT22;4618;48.818;9.088;2023-06-22T04:55:14;19.10;1.00
9167;DHT22;4618;48.818;9.088;2023-06-22T04:57:44;19.30;1.00
9167;DHT22;4618;48.818;9.088;2023-06-22T05:00:17;19.40;99.90
9167;DHT22;4618;48.818;9.088;2023-06-22T05:02:44;19.60;1.00
9167;DHT22;4618;48.818;9.088;2023-06-22T05:05:10;19.70;1.00
9167;DHT22;4618;48.818;9.088;2023-06-22T05:07:43;19.80;1.00
9167;DHT22;4618;48.818;9.088;2023-06-22T05:10:10;19.90;99.90
9167;DHT22;4618;48.818;9.088;2023-06-22T05:12:37;20.00;1.00
9167;DHT22;4618;48.818;9.088;2023-06-22T05:15:04;20.20;1.00
9167;DHT22;4618;48.818;9.088;2023-06-22T05:17:30;20.30;1.00
9167;DHT22;4618;48.818;9.088;2023-06-22T05:19:56;20.50;99.90
9167;DHT22;4618;48.818;9.088;2023-06-22T05:22:21;20.60;99.90
9167;DHT22;4618;48.818;9.088;2023-06-22T05:24:47;20.70;81.50
9167;DHT22;4618;48.818;9.088;2023-06-22T05:27:13;20.80;1.00
9167;DHT22;4618;48.818;9.088;2023-06-22T05:29:39;21.00;1.00
9167;DHT22;4618;48.818;9.088;2023-06-22T05:32:05;21.10;1.00
9167;DHT22;4618;48.818;9.088;2023-06-22T05:34:32;21.20;1.00
9167;DHT22;4618;48.818;9.088;2023-06-22T05:36:58;21.40;99.90
9167;DHT22;4618;48.818;9.088;2023-06-22T05:39:26;21.50;1.00
9167;DHT22;4618;48.818;9.088;2023-06-22T05:41:52;21.60;1.00
9167;DHT22;4618;48.818;9.088;2023-06-22T05:44:18;21.60;1.00
9167;DHT22;4618;48.818;9.088;2023-06-22T05:46:44;21.60;1.00
9167;DHT22;4618;48.818;9.088;2023-06-22T05:49:12;21.60;1.00
9167;DHT22;4618;48.818;9.088;2023-06-22T05:51:37;21.70;1.00
9167;DHT22;4618;48.818;9.088;2023-06-22T05:54:03;21.60;1.00
9167;DHT22;4618;48.818;9.088;2023-06-22T05:56:29;21.60;1.00
9167;DHT22;4618;48.818;9.088;2023-06-22T05:58:54;21.60;1.00
9167;DHT22;4618;48.818;9.088;2023-06-22T06:01:20;21.60;1.00
9167;DHT22;4618;48.818;9.088;2023-06-22T06:03:46;21.60;99.90
9167;DHT22;4618;48.818;9.088;2023-06-22T06:06:11;21.60;99.90
9167;DHT22;4618;48.818;9.088;2023-06-22T06:08:38;21.80;99.90
9167;DHT22;4618;48.818;9.088;2023-06-22T06:11:04;21.90;99.90
9167;DHT22;4618;48.818;9.088;2023-06-22T06:13:29;21.90;1.00
9167;DHT22;4618;48.818;9.088;2023-06-22T06:15:55;21.90;99.90
9167;DHT22;4618;48.818;9.088;2023-06-22T06:18:21;22.00;99.90
9167;DHT22;4618;48.818;9.088;2023-06-22T06:20:47;22.10;37.80
9167;DHT22;4618;48.818;9.088;2023-06-22T06:23:12;22.30;1.00
9167;DHT22;4618;48.818;9.088;2023-06-22T06:25:38;22.50;1.00
9167;DHT22;4618;48.818;9.088;2023-06-22T06:28:04;22.80;99.90
9167;DHT22;4618;48.818;9.088;2023-06-22T06:30:30;22.80;99.90
9167;DHT22;4618;48.818;9.088;2023-06-22T06:32:56;22.80;99.90
9167;DHT22;4618;48.818;9.088;2023-06-22T06:35:21;22.90;99.90
9167;DHT22;4618;48.818;9.088;2023-06-22T06:37:49;23.00;99.90
9167;DHT22;4618;48.818;9.088;2023-06-22T06:40:16;23.20;1.00
9167;DHT22;4618;48.818;9.088;2023-06-22T06:42:47;23.20;1.00
9167;DHT22;4618;48.818;9.088;2023-06-22T06:45:15;23.20;1.00
9167;DHT22;4618;48.818;9.088;2023-06-22T06:47:41;23.60;1.00
9167;DHT22;4618;48.818;9.088;2023-06-22T06:50:07;23.70;1.00
9167;DHT22;4618;48.818;9.088;2023-06-22T06:52:33;23.70;99.90
9167;DHT22;4618;48.818;9.088;2023-06-22T06:54:59;23.80;99.90
9167;DHT22;4618;48.818;9.088;2023-06-22T06:57:24;23.80;99.90
9167;DHT22;4618;48.818;9.088;2023-06-22T06:59:57;24.00;99.90
9167;DHT22;4618;48.818;9.088;2023-06-22T07:02:23;24.10;99.90
9167;DHT22;4618;48.818;9.088;2023-06-22T07:04:49;24.30;1.00
9167;DHT22;4618;48.818;9.088;2023-06-22T07:07:15;24.10;99.90
9167;DHT22;4618;48.818;9.088;2023-06-22T07:09:40;24.20;1.00
9167;DHT22;4618;48.818;9.088;2023-06-22T07:12:06;24.30;1.00
9167;DHT22;4618;48.818;9.088;2023-06-22T07:14:32;24.40;99.90
9167;DHT22;4618;48.818;9.088;2023-06-22T07:16:58;24.50;1.00
9167;DHT22;4618;48.818;9.088;2023-06-22T07:19:27;24.70;1.00
9167;DHT22;4618;48.818;9.088;2023-06-22T07:21:54;24.70;99.90
9167;DHT22;4618;48.818;9.088;2023-06-22T07:24:24;24.80;99.90
9167;DHT22;4618;48.818;9.088;2023-06-22T07:26:49;24.90;99.90
9167;DHT22;4618;48.818;9.088;2023-06-22T07:29:19;25.20;99.90
9167;DHT22;4618;48.818;9.088;2023-06-22T07:31:47;25.40;51.30
9167;DHT22;4618;48.818;9.088;2023-06-22T07:34:13;25.80;1.00
9167;DHT22;4618;48.818;9.088;2023-06-22T07:36:38;26.20;1.00
9167;DHT22;4618;48.818;9.088;2023-06-22T07:39:05;26.40;1.00
9167;DHT22;4618;48.818;9.088;2023-06-22T07:41:30;26.60;99.90
9167;DHT22;4618;48.818;9.088;2023-06-22T07:46:23;27.30;99.90
9167;DHT22;4618;48.818;9.088;2023-06-22T07:48:48;27.70;99.90
9167;DHT22;4618;48.818;9.088;2023-06-22T07:51:14;27.40;99.90
9167;DHT22;4618;48.818;9.088;2023-06-22T07:53:43;27.70;1.00
9167;DHT22;4618;48.818;9.088;2023-06-22T07:56:13;27.90;99.90
9167;DHT22;4618;48.818;9.088;2023-06-22T08:05:57;29.30;99.90
9167;DHT22;4618;48.818;9.088;2023-06-22T08:08:23;29.70;99.90
9167;DHT22;4618;48.818;9.088;2023-06-22T08:10:49;30.30;99.90
9167;DHT22;4618;48.818;9.088;2023-06-22T08:13:14;30.40;99.90
9167;DHT22;4618;48.818;9.088;2023-06-22T08:15:40;30.70;99.90
9167;DHT22;4618;48.818;9.088;2023-06-22T08:18:06;31.10;99.90
9167;DHT22;4618;48.818;9.088;2023-06-22T08:22:58;31.80;82.00
9167;DHT22;4618;48.818;9.088;2023-06-22T08:25:26;31.80;93.10
9167;DHT22;4618;48.818;9.088;2023-06-22T08:27:51;31.40;93.40
9167;DHT22;4618;48.818;9.088;2023-06-22T08:30:18;32.00;86.60
9167;DHT22;4618;48.818;9.088;2023-06-22T08:32:44;32.00;79.00
9167;DHT22;4618;48.818;9.088;2023-06-22T08:35:10;32.00;80.90
9167;DHT22;4618;48.818;9.088;2023-06-22T08:37:36;31.70;76.90
9167;DHT22;4618;48.818;9.088;2023-06-22T08:42:31;31.50;54.90
9167;DHT22;4618;48.818;9.088;2023-06-22T08:44:57;31.10;72.00
9167;DHT22;4618;48.818;9.088;2023-06-22T08:47:22;31.00;70.50
9167;DHT22;4618;48.818;9.088;2023-06-22T08:49:48;30.40;82.30
9167;DHT22;4618;48.818;9.088;2023-06-22T08:52:14;30.60;78.20
9167;DHT22;4618;48.818;9.088;2023-06-22T08:54:40;30.90;82.40
9167;DHT22;4618;48.818;9.088;2023-06-22T08:57:06;32.30;68.60
9167;DHT22;4618;48.818;9.088;2023-06-22T08:59:31;31.40;67.20
9167;DHT22;4618;48.818;9.088;2023-06-22T09:01:57;30.70;65.40
9167;DHT22;4618;48.818;9.088;2023-06-22T09:04:22;30.70;62.90
9167;DHT22;4618;48.818;9.088;2023-06-22T09:06:48;30.50;61.10
9167;DHT22;4618;48.818;9.088;2023-06-22T09:09:16;30.70;59.80
9167;DHT22;4618;48.818;9.088;2023-06-22T09:11:42;30.90;61.40
9167;DHT22;4618;48.818;9.088;2023-06-22T09:14:08;31.20;59.90
9167;DHT22;4618;48.818;9.088;2023-06-22T09:16:34;31.20;57.30
9167;DHT22;4618;48.818;9.088;2023-06-22T09:18:59;31.20;58.10
9167;DHT22;4618;48.818;9.088;2023-06-22T09:21:25;31.10;56.50
9167;DHT22;4618;48.818;9.088;2023-06-22T09:23:51;31.60;55.40
9167;DHT22;4618;48.818;9.088;2023-06-22T09:26:17;32.30;53.30
9167;DHT22;4618;48.818;9.088;2023-06-22T09:31:09;33.70;34.30
9167;DHT22;4618;48.818;9.088;2023-06-22T09:33:36;34.70;99.90
9167;DHT22;4618;48.818;9.088;2023-06-22T09:38:27;35.90;14.10
9167;DHT22;4618;48.818;9.088;2023-06-22T09:43:19;34.60;2.40
9167;DHT22;4618;48.818;9.088;2023-06-22T09:45:44;33.60;21.50
9167;DHT22;4618;48.818;9.088;2023-06-22T09:50:37;33.00;9.00
9167;DHT22;4618;48.818;9.088;2023-06-22T09:53:02;34.20;33.10
9167;DHT22;4618;48.818;9.088;2023-06-22T10:02:47;36.20;1.00
9167;DHT22;4618;48.818;9.088;2023-06-22T10:07:40;37.50;1.00
9167;DHT22;4618;48.818;9.088;2023-06-22T10:10:09;36.70;1.00
9167;DHT22;4618;48.818;9.088;2023-06-22T10:12:34;35.70;1.40
9167;DHT22;4618;48.818;9.088;2023-06-22T10:15:00;35.10;1.70
9167;DHT22;4618;48.818;9.088;2023-06-22T10:17:26;34.70;2.40
9167;DHT22;4618;48.818;9.088;2023-06-22T10:19:51;34.80;4.40
9167;DHT22;4618;48.818;9.088;2023-06-22T10:22:17;34.80;4.20
9167;DHT22;4618;48.818;9.088;2023-06-22T10:24:43;35.60;3.30
9167;DHT22;4618;48.818;9.088;2023-06-22T10:27:13;35.90;1.00
9167;DHT22;4618;48.818;9.088;2023-06-22T10:29:39;36.90;1.00
9167;DHT22;4618;48.818;9.088;2023-06-22T10:32:05;37.00;1.00
9167;DHT22;4618;48.818;9.088;2023-06-22T10:34:30;36.80;1.00
9167;DHT22;4618;48.818;9.088;2023-06-22T10:36:56;37.00;1.00
9167;DHT22;4618;48.818;9.088;2023-06-22T10:39:21;37.50;1.00
9167;DHT22;4618;48.818;9.088;2023-06-22T10:41:47;36.80;99.90
9167;DHT22;4618;48.818;9.088;2023-06-22T10:44:12;36.10;1.00
9167;DHT22;4618;48.818;9.088;2023-06-22T10:46:38;36.00;1.00
9167;DHT22;4618;48.818;9.088;2023-06-22T10:49:04;37.00;1.00
9167;DHT22;4618;48.818;9.088;2023-06-22T10:53:56;37.70;1.00
9167;DHT22;4618;48.818;9.088;2023-06-22T10:56:22;38.10;1.00
9167;DHT22;4618;48.818;9.088;2023-06-22T10:58:48;38.50;1.00
9167;DHT22;4618;48.818;9.088;2023-06-22T11:01:13;38.70;1.00
9167;DHT22;4618;48.818;9.088;2023-06-22T11:03:39;38.60;1.00
9167;DHT22;4618;48.818;9.088;2023-06-22T11:06:05;39.20;1.00
9167;DHT22;4618;48.818;9.088;2023-06-22T11:08:30;38.70;1.00
9167;DHT22;4618;48.818;9.088;2023-06-22T11:10:56;38.70;1.00
9167;DHT22;4618;48.818;9.088;2023-06-22T11:13:21;37.50;1.00
9167;DHT22;4618;48.818;9.088;2023-06-22T11:15:47;36.90;1.00
9167;DHT22;4618;48.818;9.088;2023-06-22T11:18:12;37.00;1.00
9167;DHT22;4618;48.818;9.088;2023-06-22T11:20:38;37.20;1.00
9167;DHT22;4618;48.818;9.088;2023-06-22T11:23:07;36.50;1.00
9167;DHT22;4618;48.818;9.088;2023-06-22T11:25:33;36.10;1.00
9167;DHT22;4618;48.818;9.088;2023-06-22T11:28:03;35.90;1.00
9167;DHT22;4618;48.818;9.088;2023-06-22T11:30:30;35.70;1.00
9167;DHT22;4618;48.818;9.088;2023-06-22T11:32:58;35.00;1.00
9167;DHT22;4618;48.818;9.088;2023-06-22T11:35:23;35.00;1.00
9167;DHT22;4618;48.818;9.088;2023-06-22T11:37:49;34.70;1.00
9167;DHT22;4618;48.818;9.088;2023-06-22T11:40:14;34.70;1.00
9167;DHT22;4618;48.818;9.088;2023-06-22T11:42:40;35.10;1.00
9167;DHT22;4618;48.818;9.088;2023-06-22T11:45:06;35.30;1.00
9167;DHT22;4618;48.818;9.088;2023-06-22T11:47:32;34.80;1.00
9167;DHT22;4618;48.818;9.088;2023-06-22T11:49:58;34.30;1.00
9167;DHT22;4618;48.818;9.088;2023-06-22T11:54:49;34.30;1.00
9167;DHT22;4618;48.818;9.088;2023-06-22T11:57:14;34.30;1.00
9167;DHT22;4618;48.818;9.088;2023-06-22T11:59:40;34.00;1.00
9167;DHT22;4618;48.818;9.088;2023-06-22T12:02:05;33.80;1.00
9167;DHT22;4618;48.818;9.088;2023-06-22T12:04:32;33.50;1.00
9167;DHT22;4618;48.818;9.088;2023-06-22T12:06:58;32.80;1.00
9167;DHT22;4618;48.818;9.088;2023-06-22T12:09:24;32.70;1.00
9167;DHT22;4618;48.818;9.088;2023-06-22T12:11:49;32.50;1.00
9167;DHT22;4618;48.818;9.088;2023-06-22T12:14:15;32.40;1.00
9167;DHT22;4618;48.818;9.088;2023-06-22T12:16:40;32.40;1.00
9167;DHT22;4618;48.818;9.088;2023-06-22T12:19:06;32.70;1.00
9167;DHT22;4618;48.818;9.088;2023-06-22T12:21:32;32.90;1.00
9167;DHT22;4618;48.818;9.088;2023-06-22T12:23:57;33.50;1.00
9167;DHT22;4618;48.818;9.088;2023-06-22T12:26:22;33.70;1.00
9167;DHT22;4618;48.818;9.088;2023-06-22T12:28:48;33.20;1.00
9167;DHT22;4618;48.818;9.088;2023-06-22T12:31:14;33.10;1.00
9167;DHT22;4618;48.818;9.088;2023-06-22T12:33:40;33.20;1.00
9167;DHT22;4618;48.818;9.088;2023-06-22T12:36:05;33.30;1.00
9167;DHT22;4618;48.818;9.088;2023-06-22T12:38:31;33.20;1.00
9167;DHT22;4618;48.818;9.088;2023-06-22T12:40:56;32.90;1.00
9167;DHT22;4618;48.818;9.088;2023-06-22T12:43:22;32.80;1.00
9167;DHT22;4618;48.818;9.088;2023-06-22T12:45:47;33.30;1.00
9167;DHT22;4618;48.818;9.088;2023-06-22T12:48:13;33.50;1.00
9167;DHT22;4618;48.818;9.088;2023-06-22T12:50:38;33.50;1.00
9167;DHT22;4618;48.818;9.088;2023-06-22T12:53:04;33.40;1.00
9167;DHT22;4618;48.818;9.088;2023-06-22T12:55:31;33.10;1.00
9167;DHT22;4618;48.818;9.088;2023-06-22T12:57:57;33.10;1.00
9167;DHT22;4618;48.818;9.088;2023-06-22T13:00:23;32.90;1.00
9167;DHT22;4618;48.818;9.088;2023-06-22T13:02:48;32.60;1.00
9167;DHT22;4618;48.818;9.088;2023-06-22T13:05:14;32.20;1.00
9167;DHT22;4618;48.818;9.088;2023-06-22T13:07:39;32.30;1.00
9167;DHT22;4618;48.818;9.088;2023-06-22T13:10:05;32.00;1.00
9167;DHT22;4618;48.818;9.088;2023-06-22T13:12:31;31.80;1.00
9167;DHT22;4618;48.818;9.088;2023-06-22T13:14:56;31.70;1.00
9167;DHT22;4618;48.818;9.088;2023-06-22T13:17:22;31.70;1.00
9167;DHT22;4618;48.818;9.088;2023-06-22T13:19:47;31.60;1.00
9167;DHT22;4618;48.818;9.088;2023-06-22T13:22:33;31.70;1.00
9167;DHT22;4618;48.818;9.088;2023-06-22T13:25:05;32.00;1.00
9167;DHT22;4618;48.818;9.088;2023-06-22T13:27:32;32.20;1.00
9167;DHT22;4618;48.818;9.088;2023-06-22T13:29:57;32.20;1.00
9167;DHT22;4618;48.818;9.088;2023-06-22T13:32:23;32.20;1.00
9167;DHT22;4618;48.818;9.088;2023-06-22T13:34:49;32.40;1.00
9167;DHT22;4618;48.818;9.088;2023-06-22T13:37:14;32.40;1.00
9167;DHT22;4618;48.818;9.088;2023-06-22T13:39:40;32.70;1.00
9167;DHT22;4618;48.818;9.088;2023-06-22T13:42:06;33.10;1.00
9167;DHT22;4618;48.818;9.088;2023-06-22T13:44:31;33.30;1.00
9167;DHT22;4618;48.818;9.088;2023-06-22T13:46:57;33.60;1.00
9167;DHT22;4618;48.818;9.088;2023-06-22T13:49:23;33.20;1.00
9167;DHT22;4618;48.818;9.088;2023-06-22T13:51:48;33.00;1.00
9167;DHT22;4618;48.818;9.088;2023-06-22T13:54:14;32.50;1.00
9167;DHT22;4618;48.818;9.088;2023-06-22T13:56:40;32.50;1.00
9167;DHT22;4618;48.818;9.088;2023-06-22T13:59:06;32.10;1.00
9167;DHT22;4618;48.818;9.088;2023-06-22T14:01:34;31.50;1.00
9167;DHT22;4618;48.818;9.088;2023-06-22T14:04:00;31.50;1.00
9167;DHT22;4618;48.818;9.088;2023-06-22T14:06:27;31.60;1.00
9167;DHT22;4618;48.818;9.088;2023-06-22T14:08:53;32.10;1.00
9167;DHT22;4618;48.818;9.088;2023-06-22T14:11:18;32.70;1.00
9167;DHT22;4618;48.818;9.088;2023-06-22T14:13:44;33.10;1.00
9167;DHT22;4618;48.818;9.088;2023-06-22T14:16:09;33.20;1.00
9167;DHT22;4618;48.818;9.088;2023-06-22T14:18:35;33.50;1.00
9167;DHT22;4618;48.818;9.088;2023-06-22T14:21:00;34.00;1.00
9167;DHT22;4618;48.818;9.088;2023-06-22T14:23:27;34.30;1.00
9167;DHT22;4618;48.818;9.088;2023-06-22T14:25:52;34.80;1.00
9167;DHT22;4618;48.818;9.088;2023-06-22T14:28:18;34.50;1.00
9167;DHT22;4618;48.818;9.088;2023-06-22T14:30:44;34.30;1.00
9167;DHT22;4618;48.818;9.088;2023-06-22T14:33:10;34.00;1.00
9167;DHT22;4618;48.818;9.088;2023-06-22T14:35:36;34.30;1.00
9167;DHT22;4618;48.818;9.088;2023-06-22T14:38:01;34.60;1.00
9167;DHT22;4618;48.818;9.088;2023-06-22T14:40:27;34.50;1.00
9167;DHT22;4618;48.818;9.088;2023-06-22T14:42:52;34.30;1.00
9167;DHT22;4618;48.818;9.088;2023-06-22T14:45:18;34.10;1.00
9167;DHT22;4618;48.818;9.088;2023-06-22T14:47:43;34.30;1.00
9167;DHT22;4618;48.818;9.088;2023-06-22T14:50:09;34.80;1.00
9167;DHT22;4618;48.818;9.088;2023-06-22T14:52:35;35.10;1.00
9167;DHT22;4618;48.818;9.088;2023-06-22T14:55:00;35.00;1.00
9167;DHT22;4618;48.818;9.088;2023-06-22T14:57:26;35.00;1.00
9167;DHT22;4618;48.818;9.088;2023-06-22T14:59:51;35.00;1.00
9167;DHT22;4618;48.818;9.088;2023-06-22T15:02:17;35.40;1.00
9167;DHT22;4618;48.818;9.088;2023-06-22T15:04:43;35.10;1.00
9167;DHT22;4618;48.818;9.088;2023-06-22T15:07:08;35.50;1.00
9167;DHT22;4618;48.818;9.088;2023-06-22T15:09:34;35.80;1.00
9167;DHT22;4618;48.818;9.088;2023-06-22T15:11:59;35.60;1.00
9167;DHT22;4618;48.818;9.088;2023-06-22T15:14:27;35.10;1.00
9167;DHT22;4618;48.818;9.088;2023-06-22T15:16:53;35.30;1.00
9167;DHT22;4618;48.818;9.088;2023-06-22T15:19:18;35.20;1.00
9167;DHT22;4618;48.818;9.088;2023-06-22T15:21:44;34.70;1.00
9167;DHT22;4618;48.818;9.088;2023-06-22T15:24:09;34.00;1.00
9167;DHT22;4618;48.818;9.088;2023-06-22T15:26:35;34.40;1.00
9167;DHT22;4618;48.818;9.088;2023-06-22T15:29:00;35.00;1.00
9167;DHT22;4618;48.818;9.088;2023-06-22T15:31:27;35.90;1.00
9167;DHT22;4618;48.818;9.088;2023-06-22T15:33:52;35.90;1.00
9167;DHT22;4618;48.818;9.088;2023-06-22T15:36:18;35.60;1.00
9167;DHT22;4618;48.818;9.088;2023-06-22T15:38:44;35.00;1.00
9167;DHT22;4618;48.818;9.088;2023-06-22T15:41:09;34.20;1.00
9167;DHT22;4618;48.818;9.088;2023-06-22T15:43:35;33.50;1.00
9167;DHT22;4618;48.818;9.088;2023-06-22T15:46:01;32.90;1.00
9167;DHT22;4618;48.818;9.088;2023-06-22T15:48:26;32.20;1.00
9167;DHT22;4618;48.818;9.088;2023-06-22T15:50:52;32.30;1.00
9167;DHT22;4618;48.818;9.088;2023-06-22T15:53:17;32.40;1.00
9167;DHT22;4618;48.818;9.088;2023-06-22T15:55:43;32.40;1.00
9167;DHT22;4618;48.818;9.088;2023-06-22T15:58:09;32.20;1.00
9167;DHT22;4618;48.818;9.088;2023-06-22T16:00:35;32.20;1.00
9167;DHT22;4618;48.818;9.088;2023-06-22T16:03:00;32.20;1.00
9167;DHT22;4618;48.818;9.088;2023-06-22T16:05:27;32.10;1.00
9167;DHT22;4618;48.818;9.088;2023-06-22T16:07:55;31.80;1.00
9167;DHT22;4618;48.818;9.088;2023-06-22T16:10:21;31.50;1.00
9167;DHT22;4618;48.818;9.088;2023-06-22T16:12:47;31.20;1.00
9167;DHT22;4618;48.818;9.088;2023-06-22T16:15:14;31.10;1.00
9167;DHT22;4618;48.818;9.088;2023-06-22T16:17:40;30.90;1.00
9167;DHT22;4618;48.818;9.088;2023-06-22T16:20:07;31.00;1.00
9167;DHT22;4618;48.818;9.088;2023-06-22T16:22:33;30.80;1.00
9167;DHT22;4618;48.818;9.088;2023-06-22T16:24:59;30.60;1.00
9167;DHT22;4618;48.818;9.088;2023-06-22T16:27:25;30.80;1.00
9167;DHT22;4618;48.818;9.088;2023-06-22T16:29:53;30.80;1.00
9167;DHT22;4618;48.818;9.088;2023-06-22T16:32:18;30.80;1.00
9167;DHT22;4618;48.818;9.088;2023-06-22T16:34:44;30.70;1.00
9167;DHT22;4618;48.818;9.088;2023-06-22T16:37:11;30.40;1.00
9167;DHT22;4618;48.818;9.088;2023-06-22T16:39:37;30.20;1.00
9167;DHT22;4618;48.818;9.088;2023-06-22T16:42:03;30.20;1.00
9167;DHT22;4618;48.818;9.088;2023-06-22T16:44:28;30.40;1.00
9167;DHT22;4618;48.818;9.088;2023-06-22T16:46:54;30.80;1.00
9167;DHT22;4618;48.818;9.088;2023-06-22T16:49:20;31.00;1.00
9167;DHT22;4618;48.818;9.088;2023-06-22T16:51:45;31.20;1.00
9167;DHT22;4618;48.818;9.088;2023-06-22T16:54:12;31.40;1.00
9167;DHT22;4618;48.818;9.088;2023-06-22T16:56:38;31.80;1.00
9167;DHT22;4618;48.818;9.088;2023-06-22T16:59:03;32.10;1.00